Aérodrome :
LOGIN :

S'inscrire | Disclaimer

   EN    FR    IT 

 










Légende :    VFR   VFR Marginal   IFR   IFR Intensif   IFR Très Intensif
Visi : 
Plafond : 
>= 8 km
>= 3000ft
5 à 8 km
1000 à 3000 ft
1500m à 5 km
500 à 1000 ft
800 à 1500m
200 à 500 ft
< 800m
< 200 ft
Symboles :   Orages  Brouillard  Fortes neiges  Fortes précipitations  Vent > 20 kt
SIGMETs :   Divers  Orages  Givrage  Turbulence  Onde Orograph.  Cendres Volcan.







- Altitude de l'aérodrome : 160 ft
- Code IATA : FMO


EDDG - Münster Osnabrück Int.

DERNIER METAR :
  • 261050Z 27012KT 9999 -RA FEW020 BKN027 08/04 Q1029 NOSIG

METARs EXPIRÉS :
  • 261020Z 25010KT 9999 FEW020 BKN030 07/04 Q1030 NOSIG
  • 260950Z 28006KT 9999 FEW015 BKN019 06/04 Q1030 NOSIG
  • 260920Z 26008KT 9000 -RA BKN019 06/03 Q1030 NOSIG
  • 260850Z 28009KT 260V320 9999 -SHRA FEW011TCU BKN027 06/02 Q1030 NOSIG
  • 260820Z 28012KT 250V310 9999 -SHRA FEW014TCU BKN035 07/02 Q1030 NOSIG
  • 260750Z 27009KT 9999 VCSH FEW018TCU SCT030 BKN044 07/02 Q1030 NOSIG

TAF TAF EDDG
Valide du 26 à 06h jusqu'au 27 à 06h UTC


260500Z 2606/2706 29008KT 9999 FEW025 BKN030
BECMG 2619/2622 26003KT
BECMG 2700/2703 BKN010
TEMPO 2703/2706 4000 BR BKN008
Pas de NOTAMs connus pour ce terrain.



MET'MAP, la Météo Aéronautique d'un coup d'oeil ! - Copyright ORBIFLY Décembre 2007 - Disclaimer

ORBIFLY MET'MAP TEAM :

Programmation & Développement : Alexandra Zaïnal
Conception & Développement : Baudouin d'Aumeries
Co-Programmation & Développement : Marc-Olivier Méhu
Soutien technique & logistique : Manuel Goepfert

Contact : metmap@orbifly.com




SOURCES & CREDITS :

   NOAA